createdAt,value
2024-01-21T00:01:30.713Z,14.50
2024-01-21T00:06:34.273Z,13.10
2024-01-21T00:11:37.680Z,14.10
2024-01-21T00:16:41.664Z,11.80
2024-01-21T00:21:45.070Z,18.40
2024-01-21T00:26:48.858Z,17.60
2024-01-21T00:31:53.276Z,15.40
2024-01-21T00:36:56.708Z,13.30
2024-01-21T00:42:05.186Z,12.50
2024-01-21T00:47:12.170Z,14.90
2024-01-21T00:52:15.794Z,12.90
2024-01-21T00:57:19.153Z,14.80
2024-01-21T01:02:22.572Z,10.10
2024-01-21T01:07:26.999Z,13.50
2024-01-21T01:12:30.453Z,17.10
2024-01-21T01:17:33.950Z,14.70
2024-01-21T01:22:37.624Z,18.60
2024-01-21T01:27:41.012Z,15.60
2024-01-21T01:32:44.464Z,17.20
2024-01-21T01:37:48.039Z,13.80
2024-01-21T01:42:59.907Z,20.20
2024-01-21T01:48:05.416Z,16.80
2024-01-21T01:53:10.148Z,14.90
2024-01-21T01:58:16.288Z,14.60
2024-01-21T02:03:20.199Z,15.10
2024-01-21T02:08:23.665Z,16.10
2024-01-21T02:13:30.163Z,19.60
2024-01-21T02:18:37.301Z,16.50
2024-01-21T02:23:40.812Z,16.40
2024-01-21T02:28:44.225Z,17.20
2024-01-21T02:33:48.240Z,17.60
2024-01-21T02:38:51.675Z,16.10
2024-01-21T02:43:55.080Z,16.60
2024-01-21T02:48:59.657Z,20.00
2024-01-21T02:54:02.992Z,14.90
2024-01-21T02:59:06.417Z,15.80
2024-01-21T03:04:13.937Z,14.60
2024-01-21T03:09:17.300Z,15.90
2024-01-21T03:14:20.609Z,17.10
2024-01-21T03:19:24.533Z,13.70
2024-01-21T03:24:28.024Z,15.10
2024-01-21T03:29:31.872Z,15.20
2024-01-21T03:34:35.385Z,16.80
2024-01-21T03:39:38.845Z,13.20
2024-01-21T03:44:42.393Z,17.50
2024-01-21T03:49:46.034Z,15.60
2024-01-21T03:54:49.486Z,19.90
2024-01-21T03:59:53.168Z,15.60
2024-01-21T04:04:56.575Z,13.50
2024-01-21T04:10:00.603Z,13.30
2024-01-21T04:15:04.162Z,44.50
2024-01-21T04:20:09.171Z,25.20
2024-01-21T04:25:12.493Z,22.70
2024-01-21T04:30:16.039Z,20.60
2024-01-21T04:35:19.445Z,37.10
2024-01-21T04:40:22.809Z,20.60
2024-01-21T04:45:26.174Z,18.90
2024-01-21T04:50:29.536Z,20.90
2024-01-21T04:55:32.886Z,32.90
2024-01-21T05:00:36.344Z,22.50
2024-01-21T05:05:39.712Z,35.30
2024-01-21T05:10:43.421Z,34.10
2024-01-21T05:15:47.116Z,28.70
2024-01-21T05:20:50.659Z,23.70
2024-01-21T05:25:56.235Z,20.10
2024-01-21T05:30:59.939Z,23.90
2024-01-21T05:36:03.529Z,27.60
2024-01-21T05:41:07.852Z,25.00
2024-01-21T05:46:11.476Z,17.00
2024-01-21T05:51:14.821Z,14.40
2024-01-21T05:56:19.655Z,13.60
2024-01-21T06:01:23.092Z,22.40
2024-01-21T06:06:27.132Z,16.10
2024-01-21T06:11:30.722Z,12.30
2024-01-21T06:16:34.058Z,13.60
2024-01-21T06:21:44.854Z,16.10
2024-01-21T06:26:48.215Z,14.20
2024-01-21T06:31:51.514Z,15.60
2024-01-21T06:36:54.982Z,13.20
2024-01-21T06:41:59.381Z,14.50
2024-01-21T06:47:02.900Z,18.40
2024-01-21T06:52:09.028Z,19.40
2024-01-21T06:57:12.522Z,26.60
2024-01-21T07:02:15.897Z,28.30
2024-01-21T07:07:19.351Z,22.20
2024-01-21T07:12:23.058Z,21.90
2024-01-21T07:17:26.450Z,17.10
2024-01-21T07:22:30.136Z,18.20
2024-01-21T07:27:36.194Z,16.10
2024-01-21T07:32:43.414Z,17.70
2024-01-21T07:37:51.321Z,18.90
2024-01-21T07:42:55.018Z,25.90
2024-01-21T07:47:58.574Z,26.90
2024-01-21T07:53:02.051Z,26.10
2024-01-21T07:58:05.615Z,26.60
2024-01-21T08:03:08.983Z,22.80
2024-01-21T08:08:12.420Z,22.60
2024-01-21T08:13:15.706Z,31.10
2024-01-21T08:18:20.854Z,30.20
2024-01-21T08:23:26.522Z,31.10
2024-01-21T08:28:31.930Z,32.10
2024-01-21T08:33:38.402Z,33.00
2024-01-21T08:38:42.499Z,25.10
2024-01-21T08:43:46.104Z,26.00
2024-01-21T08:48:51.634Z,35.50
2024-01-21T08:53:58.668Z,27.20
2024-01-21T08:59:02.193Z,38.40
2024-01-21T09:04:05.951Z,32.20
2024-01-21T09:09:13.641Z,35.20
2024-01-21T09:14:18.158Z,24.40
2024-01-21T09:19:22.318Z,33.40
2024-01-21T09:24:25.863Z,25.10
2024-01-21T09:29:29.240Z,34.20
2024-01-21T09:34:32.792Z,39.20
2024-01-21T09:39:36.701Z,29.90
2024-01-21T09:44:40.300Z,31.70
2024-01-21T09:49:45.841Z,35.30
2024-01-21T09:54:52.095Z,34.00
2024-01-21T09:59:56.982Z,39.10
2024-01-21T10:05:00.438Z,35.50
2024-01-21T10:10:04.043Z,39.20
2024-01-21T10:15:08.180Z,33.20
2024-01-21T10:20:14.011Z,41.20
2024-01-21T10:25:17.549Z,36.10
2024-01-21T10:30:21.001Z,40.80
2024-01-21T10:35:24.907Z,33.40
2024-01-21T10:40:28.203Z,37.00
2024-01-21T10:45:34.227Z,31.80
2024-01-21T10:50:42.927Z,35.90
2024-01-21T10:55:46.419Z,40.20
2024-01-21T11:00:52.494Z,36.00
2024-01-21T11:06:06.725Z,37.10
2024-01-21T11:11:10.169Z,39.90
2024-01-21T11:16:31.864Z,31.80
2024-01-21T11:21:42.228Z,39.00
2024-01-21T11:26:49.278Z,34.70
2024-01-21T11:31:54.468Z,34.20
2024-01-21T11:36:59.260Z,41.20
2024-01-21T11:42:04.456Z,37.70
2024-01-21T11:47:08.956Z,39.90
2024-01-21T11:52:12.771Z,39.90
2024-01-21T11:57:16.215Z,31.00
2024-01-21T12:02:20.791Z,30.10
2024-01-21T12:07:27.228Z,29.40
2024-01-21T12:12:31.565Z,32.40
2024-01-21T12:17:35.063Z,29.10
2024-01-21T12:22:39.641Z,28.90
2024-01-21T12:27:46.590Z,27.40
2024-01-21T12:32:56.307Z,30.70
2024-01-21T12:38:04.981Z,28.60
2024-01-21T12:43:08.447Z,25.20
2024-01-21T12:48:12.194Z,25.20
2024-01-21T12:53:15.787Z,32.20
2024-01-21T12:58:19.484Z,19.10
2024-01-21T13:03:23.537Z,21.80
2024-01-21T13:08:28.701Z,28.70
2024-01-21T13:13:32.836Z,24.00
2024-01-21T13:18:36.237Z,24.60
2024-01-21T13:23:39.685Z,25.30
2024-01-21T13:29:15.810Z,24.80
2024-01-21T13:34:19.323Z,26.30
2024-01-21T13:39:26.842Z,34.30
2024-01-21T13:44:34.290Z,21.40
2024-01-21T13:49:38.620Z,26.40
2024-01-21T13:54:43.347Z,21.20
2024-01-21T13:59:46.810Z,28.40
2024-01-21T14:04:52.397Z,25.90
2024-01-21T14:09:58.151Z,18.30
2024-01-21T14:15:01.858Z,22.80
2024-01-21T14:20:05.984Z,27.90
2024-01-21T14:25:21.001Z,25.10
2024-01-21T14:30:42.554Z,25.90
2024-01-21T14:35:46.110Z,27.80
2024-01-21T14:40:51.755Z,27.50
2024-01-21T14:45:55.353Z,30.60
2024-01-21T14:50:58.967Z,25.00
2024-01-21T14:56:02.767Z,29.60
2024-01-21T15:01:06.194Z,25.20
2024-01-21T15:06:13.140Z,22.90
2024-01-21T15:11:17.168Z,29.80
2024-01-21T15:16:22.318Z,28.10
2024-01-21T15:21:29.960Z,23.10
2024-01-21T15:26:36.496Z,28.70
2024-01-21T15:31:43.041Z,17.20
2024-01-21T15:36:51.432Z,34.00
2024-01-21T15:42:00.151Z,29.00
2024-01-21T15:47:05.961Z,17.70
2024-01-21T15:52:10.557Z,27.20
2024-01-21T15:57:13.930Z,32.70
2024-01-21T16:02:17.878Z,22.90
2024-01-21T16:07:24.312Z,21.50
2024-01-21T16:12:29.243Z,35.00
2024-01-21T16:17:33.781Z,33.10
2024-01-21T16:22:37.238Z,30.70
2024-01-21T16:27:40.779Z,32.60
2024-01-21T16:32:44.371Z,27.20
2024-01-21T16:37:47.839Z,33.60
2024-01-21T16:42:51.338Z,29.30
2024-01-21T16:47:54.785Z,24.40
2024-01-21T16:53:03.594Z,26.80
2024-01-21T16:58:08.946Z,18.70
2024-01-21T17:03:12.791Z,24.80
2024-01-21T17:08:16.380Z,24.90
2024-01-21T17:13:20.540Z,26.50
2024-01-21T17:18:24.948Z,34.60
2024-01-21T17:23:28.710Z,26.10
2024-01-21T17:28:33.303Z,27.20
2024-01-21T17:33:36.836Z,27.00
2024-01-21T17:38:40.387Z,26.30
2024-01-21T17:43:43.953Z,25.70
2024-01-21T17:48:47.977Z,22.30
2024-01-21T17:53:55.323Z,27.40
2024-01-21T17:58:58.767Z,25.40
2024-01-21T18:04:03.212Z,26.70
2024-01-21T18:09:07.534Z,27.50
2024-01-21T18:14:13.060Z,22.80
2024-01-21T18:19:17.984Z,26.00
2024-01-21T18:24:21.754Z,28.20
2024-01-21T18:29:30.741Z,30.20
2024-01-21T18:34:41.890Z,21.80
2024-01-21T18:39:45.629Z,24.30
2024-01-21T18:44:49.736Z,27.70
2024-01-21T18:49:53.091Z,26.40
2024-01-21T18:54:58.528Z,24.60
2024-01-21T19:00:02.155Z,28.20
2024-01-21T19:05:06.500Z,24.80
2024-01-21T19:10:11.281Z,23.00
2024-01-21T19:15:16.888Z,28.80
2024-01-21T19:20:20.489Z,27.90
2024-01-21T19:25:24.384Z,27.20
2024-01-21T19:30:31.977Z,24.20
2024-01-21T19:35:36.266Z,25.80
2024-01-21T19:40:42.598Z,25.00
2024-01-21T19:45:46.713Z,18.80
2024-01-21T19:50:50.736Z,17.30
2024-01-21T19:55:55.018Z,24.90
2024-01-21T20:00:58.544Z,19.70
2024-01-21T20:06:03.321Z,27.70
2024-01-21T20:11:06.759Z,30.60
2024-01-21T20:16:10.200Z,27.00
2024-01-21T20:21:13.806Z,24.70
2024-01-21T20:26:17.335Z,33.20
2024-01-21T20:31:23.458Z,24.10
2024-01-21T20:36:26.812Z,23.60
2024-01-21T20:41:32.846Z,32.30
2024-01-21T20:46:38.300Z,24.20
2024-01-21T20:51:42.037Z,21.50
2024-01-21T20:56:48.024Z,21.90
2024-01-21T21:01:51.664Z,23.90
2024-01-21T21:06:55.213Z,24.60
2024-01-21T21:11:58.774Z,28.40
2024-01-21T21:17:06.411Z,24.10
2024-01-21T21:22:10.216Z,28.40
2024-01-21T21:27:14.380Z,27.00
2024-01-21T21:32:18.236Z,25.00
2024-01-21T21:37:21.807Z,24.70
2024-01-21T21:42:25.791Z,19.50
2024-01-21T21:47:29.337Z,18.40
2024-01-21T21:52:33.812Z,24.80
2024-01-21T21:57:37.311Z,27.50
2024-01-21T22:02:46.109Z,25.20
2024-01-21T22:07:51.299Z,22.70
2024-01-21T22:12:55.622Z,26.30
2024-01-21T22:17:59.477Z,22.00
2024-01-21T22:23:04.248Z,20.50
2024-01-21T22:28:07.922Z,22.30
2024-01-21T22:33:11.306Z,18.60
2024-01-21T22:38:14.839Z,22.30
2024-01-21T22:43:18.920Z,23.10
2024-01-21T22:48:22.605Z,25.40
2024-01-21T22:53:26.937Z,19.90
2024-01-21T22:58:30.321Z,16.80
2024-01-21T23:03:34.127Z,21.60
2024-01-21T23:08:37.962Z,19.50
2024-01-21T23:13:41.343Z,28.80
2024-01-21T23:18:44.914Z,18.90
2024-01-21T23:23:48.471Z,20.60
2024-01-21T23:28:52.267Z,12.00
2024-01-21T23:33:55.858Z,19.70
2024-01-21T23:38:59.391Z,17.80
2024-01-21T23:44:02.871Z,18.50
2024-01-21T23:49:06.400Z,14.40
2024-01-21T23:54:10.010Z,17.10
2024-01-21T23:59:13.879Z,13.60
